createdAt,value
2022-07-25T00:02:12.762Z,100193.88
2022-07-25T00:04:41.744Z,100182.78
2022-07-25T00:07:12.172Z,100186.09
2022-07-25T00:09:40.182Z,100184.84
2022-07-25T00:12:08.421Z,100180.88
2022-07-25T00:14:39.135Z,100180.44
2022-07-25T00:17:07.006Z,100183.72
2022-07-25T00:19:34.932Z,100177.00
2022-07-25T00:22:02.816Z,100173.69
2022-07-25T00:24:32.066Z,100159.13
2022-07-25T00:26:59.889Z,100175.16
2022-07-25T00:29:27.663Z,100168.44
2022-07-25T00:31:55.609Z,100170.03
2022-07-25T00:34:23.588Z,100167.41
2022-07-25T00:36:52.456Z,100160.94
2022-07-25T00:39:20.320Z,100164.94
2022-07-25T00:41:49.590Z,100160.09
2022-07-25T00:44:24.500Z,100164.28
2022-07-25T00:46:52.964Z,100164.84
2022-07-25T00:49:20.920Z,100154.66
2022-07-25T00:51:49.314Z,100145.66
2022-07-25T00:54:17.371Z,100154.22
2022-07-25T00:56:45.886Z,100153.94
2022-07-25T00:59:16.570Z,100147.31
2022-07-25T01:01:48.062Z,100144.19
2022-07-25T01:04:17.206Z,100140.31
2022-07-25T01:06:45.040Z,100137.91
2022-07-25T01:09:12.832Z,100137.38
2022-07-25T01:11:40.743Z,100141.56
2022-07-25T01:14:09.102Z,100134.41
2022-07-25T01:16:38.501Z,100134.38
2022-07-25T01:19:06.322Z,100129.72
2022-07-25T01:21:38.979Z,100129.91
2022-07-25T01:24:08.271Z,100126.38
2022-07-25T01:26:37.216Z,100121.78
2022-07-25T01:29:05.489Z,100116.88
2022-07-25T01:31:33.433Z,100121.06
2022-07-25T01:34:01.386Z,100123.00
2022-07-25T01:36:29.345Z,100120.19
2022-07-25T01:38:58.516Z,100121.63
2022-07-25T01:41:26.354Z,100122.44
2022-07-25T01:43:54.146Z,100113.06
2022-07-25T01:46:22.000Z,100115.28
2022-07-25T01:48:49.948Z,100108.38
2022-07-25T01:51:20.411Z,100105.97
2022-07-25T01:53:48.410Z,100108.22
2022-07-25T01:56:17.649Z,100099.13
2022-07-25T01:58:47.190Z,100099.31
2022-07-25T02:01:15.104Z,100107.91
2022-07-25T02:03:43.020Z,100111.13
2022-07-25T02:06:10.970Z,100102.66
2022-07-25T02:08:38.820Z,100102.00
2022-07-25T02:11:06.878Z,100107.53
2022-07-25T02:13:36.075Z,100093.19
2022-07-25T02:16:03.840Z,100097.88
2022-07-25T02:18:31.733Z,100096.28
2022-07-25T02:20:59.633Z,100089.81
2022-07-25T02:23:27.486Z,100086.31
2022-07-25T02:25:55.359Z,100074.13
2022-07-25T02:28:23.159Z,100087.63
2022-07-25T02:30:52.377Z,100078.22
2022-07-25T02:33:20.282Z,100082.13
2022-07-25T02:35:48.105Z,100084.00
2022-07-25T02:38:19.695Z,100064.78
2022-07-25T02:40:47.654Z,100060.31
2022-07-25T02:43:15.478Z,100056.16
2022-07-25T02:45:43.799Z,100046.41
2022-07-25T02:48:13.212Z,100047.81
2022-07-25T02:50:41.274Z,100054.13
2022-07-25T02:53:09.139Z,100052.66
2022-07-25T02:55:36.913Z,100050.50
2022-07-25T02:58:04.791Z,100052.16
2022-07-25T03:00:32.677Z,100043.34
2022-07-25T03:03:00.671Z,100038.94
2022-07-25T03:05:29.905Z,100037.09
2022-07-25T03:07:57.738Z,100043.66
2022-07-25T03:10:25.552Z,100049.44
2022-07-25T03:12:53.285Z,100043.16
2022-07-25T03:15:21.164Z,100031.03
2022-07-25T03:17:49.077Z,100041.88
2022-07-25T03:20:16.920Z,100042.00
2022-07-25T03:22:46.106Z,100038.69
2022-07-25T03:25:21.859Z,100025.94
2022-07-25T03:27:50.658Z,100036.41
2022-07-25T03:30:18.627Z,100034.75
2022-07-25T03:32:46.499Z,100042.09
2022-07-25T03:35:15.356Z,100037.97
2022-07-25T03:37:43.635Z,100032.28
2022-07-25T03:40:14.333Z,100019.06
2022-07-25T03:42:44.070Z,100020.22
2022-07-25T03:45:12.465Z,100023.41
2022-07-25T03:47:40.238Z,100010.88
2022-07-25T03:50:08.803Z,100019.22
2022-07-25T03:52:38.289Z,100001.53
2022-07-25T03:55:07.455Z,100009.53
2022-07-25T03:57:36.621Z,100007.94
2022-07-25T04:00:06.167Z,100010.47
2022-07-25T04:02:34.202Z,100013.78
2022-07-25T04:05:02.074Z,100010.78
2022-07-25T04:07:29.880Z,100009.06
2022-07-25T04:09:57.790Z,100003.75
2022-07-25T04:12:25.661Z,100007.66
2022-07-25T04:14:55.010Z,99992.50
2022-07-25T04:17:22.902Z,99990.94
2022-07-25T04:19:53.523Z,99993.56
2022-07-25T04:22:21.587Z,100000.88
2022-07-25T04:24:49.419Z,100007.94
2022-07-25T04:27:17.228Z,99996.38
2022-07-25T04:29:45.109Z,99997.53
2022-07-25T04:32:14.724Z,100000.28
2022-07-25T04:34:43.625Z,99997.53
2022-07-25T04:37:11.476Z,99989.50
2022-07-25T04:39:39.245Z,99999.06
2022-07-25T04:42:07.177Z,99988.38
2022-07-25T04:44:34.950Z,99996.72
2022-07-25T04:47:02.813Z,99989.75
2022-07-25T04:49:31.966Z,99995.78
2022-07-25T04:51:59.818Z,99987.84
2022-07-25T04:54:27.675Z,99983.06
2022-07-25T04:56:55.474Z,99969.81
2022-07-25T04:59:23.250Z,99981.63
2022-07-25T05:01:51.123Z,99981.78
2022-07-25T05:04:19.029Z,99980.16
2022-07-25T05:06:48.203Z,99981.22
2022-07-25T05:09:15.981Z,99984.25
2022-07-25T05:11:47.437Z,99995.09
2022-07-25T05:14:17.762Z,99985.13
2022-07-25T05:16:48.709Z,99980.56
2022-07-25T05:19:16.617Z,99977.00
2022-07-25T05:21:44.444Z,99987.69
2022-07-25T05:24:14.553Z,99984.75
2022-07-25T05:26:42.397Z,99978.66
2022-07-25T05:29:10.257Z,99962.63
2022-07-25T05:31:38.508Z,99965.41
2022-07-25T05:34:07.395Z,99964.03
2022-07-25T05:36:35.713Z,99966.38
2022-07-25T05:39:03.620Z,99965.47
2022-07-25T05:41:33.191Z,99967.31
2022-07-25T05:44:00.986Z,99957.16
2022-07-25T05:46:28.921Z,99953.88
2022-07-25T05:48:56.855Z,99953.34
2022-07-25T05:51:27.609Z,99949.34
2022-07-25T05:53:55.609Z,99943.00
2022-07-25T05:56:23.368Z,99947.91
2022-07-25T05:58:52.565Z,99950.56
2022-07-25T06:01:20.355Z,99942.06
2022-07-25T06:03:48.224Z,99941.66
2022-07-25T06:06:16.051Z,99939.19
2022-07-25T06:08:44.090Z,99940.03
2022-07-25T06:11:13.178Z,99942.69
2022-07-25T06:13:41.102Z,99938.69
2022-07-25T06:16:10.380Z,99939.13
2022-07-25T06:18:38.200Z,99932.91
2022-07-25T06:21:06.542Z,99940.19
2022-07-25T06:23:34.314Z,99933.25
2022-07-25T06:26:02.214Z,99931.06
2022-07-25T06:28:29.995Z,99932.19
2022-07-25T06:30:58.098Z,99939.72
2022-07-25T06:33:27.337Z,99933.94
2022-07-25T06:35:55.150Z,99925.94
2022-07-25T06:38:23.060Z,99923.84
2022-07-25T06:40:51.315Z,99921.47
2022-07-25T06:43:19.094Z,99926.69
2022-07-25T06:45:48.115Z,99925.25
2022-07-25T06:48:16.314Z,99918.41
2022-07-25T06:50:46.044Z,99907.91
2022-07-25T06:53:14.171Z,99913.78
2022-07-25T06:55:42.104Z,99910.81
2022-07-25T06:58:10.125Z,99911.66
2022-07-25T07:00:38.032Z,99905.41
2022-07-25T07:03:06.169Z,99905.72
2022-07-25T07:05:36.335Z,99912.25
2022-07-25T07:08:06.201Z,99911.31
2022-07-25T07:10:34.159Z,99904.81
2022-07-25T07:13:07.615Z,99903.50
2022-07-25T07:15:36.405Z,99902.03
2022-07-25T07:18:06.137Z,99912.00
2022-07-25T07:20:34.003Z,99884.59
2022-07-25T07:23:01.856Z,99896.22
2022-07-25T07:25:31.272Z,99906.88
2022-07-25T07:27:59.113Z,99898.84
2022-07-25T07:30:37.849Z,99888.28
2022-07-25T07:33:15.081Z,99874.81
2022-07-25T07:35:45.137Z,99899.13
2022-07-25T07:38:13.266Z,99893.19
2022-07-25T07:40:42.728Z,99895.94
2022-07-25T07:43:11.106Z,99890.78
2022-07-25T07:45:38.987Z,99898.81
2022-07-25T07:48:07.916Z,99877.59
2022-07-25T07:50:36.370Z,99889.06
2022-07-25T07:53:04.406Z,99879.94
2022-07-25T07:55:48.684Z,99879.28
2022-07-25T07:58:19.765Z,99888.59
2022-07-25T08:00:49.597Z,99882.50
2022-07-25T08:03:19.503Z,99883.25
2022-07-25T08:05:49.814Z,99877.91
2022-07-25T08:08:18.189Z,99881.22
2022-07-25T08:10:48.930Z,99885.53
2022-07-25T08:13:19.820Z,99880.81
2022-07-25T08:15:49.918Z,99889.56
2022-07-25T08:18:18.444Z,99886.88
2022-07-25T08:20:46.505Z,99890.03
2022-07-25T08:23:14.645Z,99892.75
2022-07-25T08:25:42.854Z,99895.44
2022-07-25T08:28:10.914Z,99878.69
2022-07-25T08:30:41.246Z,99883.22
2022-07-25T08:33:13.147Z,99885.66
2022-07-25T08:35:42.138Z,99891.34
2022-07-25T08:38:11.515Z,99880.69
2022-07-25T08:40:39.610Z,99880.69
2022-07-25T08:43:07.598Z,99868.59
2022-07-25T08:45:37.963Z,99865.59
2022-07-25T08:48:07.699Z,99870.53
2022-07-25T08:50:35.491Z,99847.72
2022-07-25T08:53:31.537Z,99869.13
2022-07-25T08:55:51.803Z,99863.00
2022-07-25T08:58:20.226Z,99855.63
2022-07-25T09:00:48.197Z,99840.19
2022-07-25T09:03:17.447Z,99848.00
2022-07-25T09:05:46.111Z,99842.09
2022-07-25T09:08:16.367Z,99845.66
2022-07-25T09:10:47.886Z,99834.38
2022-07-25T09:13:16.325Z,99836.81
2022-07-25T09:15:47.354Z,99842.97
2022-07-25T09:18:18.227Z,99820.28
2022-07-25T09:20:47.685Z,99825.81
2022-07-25T09:23:27.914Z,99813.97
2022-07-25T09:26:03.164Z,99812.69
2022-07-25T09:28:31.201Z,99808.34
2022-07-25T09:31:00.483Z,99815.16
2022-07-25T09:33:46.434Z,99780.97
2022-07-25T09:36:14.902Z,99799.28
2022-07-25T09:38:52.672Z,99792.78
2022-07-25T09:41:20.570Z,99803.72
2022-07-25T09:43:48.478Z,99799.84
2022-07-25T09:46:16.700Z,99797.34
2022-07-25T09:48:46.232Z,99793.88
2022-07-25T09:51:14.139Z,99794.44
2022-07-25T09:53:42.256Z,99781.03
2022-07-25T09:56:10.103Z,99786.34
2022-07-25T09:58:37.953Z,99793.56
2022-07-25T10:01:08.091Z,99790.78
2022-07-25T10:03:50.987Z,99756.47
2022-07-25T10:06:23.065Z,99762.53
2022-07-25T10:08:52.474Z,99774.53
2022-07-25T10:11:22.381Z,99763.75
2022-07-25T10:13:50.445Z,99769.31
2022-07-25T10:16:20.417Z,99771.28
2022-07-25T10:18:55.344Z,99773.06
2022-07-25T10:21:27.399Z,99766.84
2022-07-25T10:24:03.887Z,99764.97
2022-07-25T10:26:33.436Z,99762.28
2022-07-25T10:29:02.109Z,99765.88
2022-07-25T10:31:37.049Z,99756.03
2022-07-25T10:34:08.442Z,99748.16
2022-07-25T10:36:45.070Z,99752.28
2022-07-25T10:39:15.739Z,99756.28
2022-07-25T10:41:50.865Z,99749.56
2022-07-25T10:44:18.819Z,99746.75
2022-07-25T10:46:47.178Z,99744.69
2022-07-25T10:49:29.126Z,99724.66
2022-07-25T10:52:03.162Z,99735.28
2022-07-25T10:54:35.362Z,99740.31
2022-07-25T10:57:04.398Z,99732.50
2022-07-25T10:59:35.639Z,99718.31
2022-07-25T11:02:04.317Z,99723.72
2022-07-25T11:04:34.424Z,99725.28
2022-07-25T11:07:09.733Z,99723.94
2022-07-25T11:09:38.345Z,99687.22
2022-07-25T11:12:07.675Z,99703.38
2022-07-25T11:14:37.519Z,99707.00
2022-07-25T11:17:16.998Z,99699.59
2022-07-25T11:19:55.323Z,99706.19
2022-07-25T11:22:23.276Z,99699.03
2022-07-25T11:24:51.162Z,99696.66
2022-07-25T11:27:24.061Z,99686.31
2022-07-25T11:29:52.210Z,99675.41
2022-07-25T11:32:20.399Z,99678.69
2022-07-25T11:34:51.416Z,99684.72
2022-07-25T11:37:20.363Z,99687.31
2022-07-25T11:39:49.395Z,99687.53
2022-07-25T11:42:19.208Z,99675.00
2022-07-25T11:44:49.002Z,99674.50
2022-07-25T11:47:28.395Z,99683.66
2022-07-25T11:50:00.594Z,99683.97
2022-07-25T11:52:31.790Z,99685.31
2022-07-25T11:55:01.383Z,99687.78
2022-07-25T11:57:31.048Z,99688.28
2022-07-25T12:00:00.931Z,99678.31
2022-07-25T12:02:31.580Z,99682.50
2022-07-25T12:05:02.869Z,99685.09
2022-07-25T12:07:41.941Z,99678.56
2022-07-25T12:10:13.845Z,99674.22
2022-07-25T12:12:52.210Z,99679.50
2022-07-25T12:15:22.867Z,99670.16
2022-07-25T12:17:51.926Z,99668.31
2022-07-25T12:20:23.305Z,99670.25
2022-07-25T12:22:52.977Z,99665.53
2022-07-25T12:25:21.687Z,99661.00
2022-07-25T12:27:49.836Z,99656.75
2022-07-25T12:30:18.205Z,99654.69
2022-07-25T12:32:46.563Z,99645.41
2022-07-25T12:35:15.395Z,99650.34
2022-07-25T12:37:44.808Z,99642.28
2022-07-25T12:40:14.707Z,99645.56
2022-07-25T12:42:42.750Z,99646.72
2022-07-25T12:45:11.779Z,99652.22
2022-07-25T12:47:39.940Z,99651.94
2022-07-25T12:50:08.553Z,99643.13
2022-07-25T12:52:37.792Z,99650.66
2022-07-25T12:55:08.518Z,99643.13
2022-07-25T12:57:37.325Z,99632.22
2022-07-25T13:00:07.263Z,99634.63
2022-07-25T13:02:35.273Z,99627.41
2022-07-25T13:05:03.357Z,99643.81
2022-07-25T13:07:31.396Z,99640.13
2022-07-25T13:09:59.264Z,99611.66
2022-07-25T13:12:28.642Z,99632.91
2022-07-25T13:14:56.700Z,99645.13
2022-07-25T13:17:27.558Z,99642.03
2022-07-25T13:19:56.828Z,99624.09
2022-07-25T13:22:24.950Z,99625.25
2022-07-25T13:24:52.876Z,99630.50
2022-07-25T13:27:21.345Z,99626.16
2022-07-25T13:29:53.966Z,99610.41
2022-07-25T13:32:22.121Z,99604.38
2022-07-25T13:34:49.978Z,99612.50
2022-07-25T13:37:17.832Z,99618.84
2022-07-25T13:39:46.041Z,99622.06
2022-07-25T13:42:13.839Z,99647.16
2022-07-25T13:44:41.773Z,99644.47
2022-07-25T13:47:11.004Z,99652.03
2022-07-25T13:49:38.859Z,99651.22
2022-07-25T13:52:07.495Z,99646.19
2022-07-25T13:54:35.449Z,99643.84
2022-07-25T13:57:03.681Z,99628.81
2022-07-25T13:59:31.740Z,99622.59
2022-07-25T14:01:59.811Z,99630.31
2022-07-25T14:04:30.210Z,99632.41
2022-07-25T14:06:58.476Z,99640.59
2022-07-25T14:09:26.360Z,99623.75
2022-07-25T14:11:54.269Z,99628.94
2022-07-25T14:14:22.223Z,99632.31
2022-07-25T14:16:50.111Z,99633.88
2022-07-25T14:19:18.260Z,99609.63
2022-07-25T14:21:47.466Z,99619.13
2022-07-25T14:24:15.261Z,99619.97
2022-07-25T14:26:43.147Z,99624.09
2022-07-25T14:29:12.227Z,99617.63
2022-07-25T14:31:41.116Z,99614.38
2022-07-25T14:34:09.060Z,99616.19
2022-07-25T14:36:37.114Z,99599.22
2022-07-25T14:39:06.693Z,99601.00
2022-07-25T14:41:35.354Z,99595.78
2022-07-25T14:44:03.669Z,99585.69
2022-07-25T14:46:34.320Z,99599.13
2022-07-25T14:49:02.251Z,99599.91
2022-07-25T14:51:30.524Z,99602.88
2022-07-25T14:53:58.330Z,99607.34
2022-07-25T14:56:27.568Z,99611.47
2022-07-25T14:58:55.563Z,99599.13
2022-07-25T15:01:25.276Z,99596.44
2022-07-25T15:03:56.002Z,99592.94
2022-07-25T15:06:28.738Z,99589.22
2022-07-25T15:08:57.131Z,99580.13
2022-07-25T15:11:25.172Z,99588.66
2022-07-25T15:13:54.366Z,99580.00
2022-07-25T15:16:23.301Z,99576.00
2022-07-25T15:19:15.298Z,99549.78
2022-07-25T15:21:39.934Z,99571.75
2022-07-25T15:24:07.958Z,99574.44
2022-07-25T15:26:35.891Z,99565.28
2022-07-25T15:29:08.290Z,99536.03
2022-07-25T15:31:36.883Z,99552.28
2022-07-25T15:34:04.987Z,99553.47
2022-07-25T15:36:32.943Z,99552.00
2022-07-25T15:39:00.913Z,99561.91
2022-07-25T15:41:28.870Z,99559.22
2022-07-25T15:43:56.828Z,99568.78
2022-07-25T15:46:26.610Z,99561.72
2022-07-25T15:48:54.595Z,99540.16
2022-07-25T15:51:22.569Z,99558.31
2022-07-25T15:53:50.427Z,99559.25
2022-07-25T15:56:18.375Z,99552.06
2022-07-25T15:58:49.387Z,99558.41
2022-07-25T16:01:17.341Z,99533.00
2022-07-25T16:03:46.874Z,99547.94
2022-07-25T16:06:18.824Z,99559.94
2022-07-25T16:08:47.044Z,99543.38
2022-07-25T16:11:15.172Z,99545.53
2022-07-25T16:13:43.105Z,99556.09
2022-07-25T16:16:11.317Z,99545.78
2022-07-25T16:18:39.250Z,99561.59
2022-07-25T16:21:08.654Z,99564.41
2022-07-25T16:23:41.526Z,99564.75
2022-07-25T16:26:13.143Z,99561.13
2022-07-25T16:28:41.701Z,99572.47
2022-07-25T16:31:09.675Z,99577.38
2022-07-25T16:33:37.604Z,99557.22
2022-07-25T16:36:06.549Z,99585.44
2022-07-25T16:38:35.807Z,99579.63
2022-07-25T16:41:03.683Z,99586.88
2022-07-25T16:43:31.541Z,99584.41
2022-07-25T16:45:59.461Z,99597.28
2022-07-25T16:48:27.412Z,99594.28
2022-07-25T16:50:55.744Z,99603.22
2022-07-25T16:53:23.541Z,99587.63
2022-07-25T16:55:52.792Z,99582.56
2022-07-25T16:58:20.759Z,99604.44
2022-07-25T17:00:49.184Z,99610.09
2022-07-25T17:03:17.055Z,99611.75
2022-07-25T17:05:46.902Z,99618.50
2022-07-25T17:08:14.833Z,99636.66
2022-07-25T17:10:42.726Z,99637.84
2022-07-25T17:13:11.968Z,99644.16
2022-07-25T17:15:39.977Z,99656.69
2022-07-25T17:18:07.975Z,99614.13
2022-07-25T17:20:35.940Z,99647.19
2022-07-25T17:23:04.932Z,99661.19
2022-07-25T17:25:32.846Z,99673.59
2022-07-25T17:28:01.323Z,99674.38
2022-07-25T17:30:30.517Z,99663.84
2022-07-25T17:32:59.580Z,99665.53
2022-07-25T17:35:27.540Z,99682.28
2022-07-25T17:37:55.464Z,99676.34
2022-07-25T17:40:23.339Z,99693.69
2022-07-25T17:42:51.180Z,99706.53
2022-07-25T17:45:19.104Z,99701.25
2022-07-25T17:47:48.655Z,99677.81
2022-07-25T17:50:17.577Z,99714.31
2022-07-25T17:52:46.075Z,99703.06
2022-07-25T17:55:13.963Z,99723.94
2022-07-25T17:57:43.588Z,99731.78
2022-07-25T18:00:13.209Z,99727.44
2022-07-25T18:02:41.400Z,99733.66
2022-07-25T18:05:10.922Z,99740.06
2022-07-25T18:07:40.713Z,99733.06
2022-07-25T18:10:09.132Z,99766.75
2022-07-25T18:12:36.986Z,99760.81
2022-07-25T18:15:05.395Z,99772.13
2022-07-25T18:17:33.285Z,99789.63
2022-07-25T18:20:01.171Z,99794.94
2022-07-25T18:22:30.783Z,99791.41
2022-07-25T18:24:58.677Z,99786.97
2022-07-25T18:27:27.123Z,99808.25
2022-07-25T18:29:55.053Z,99815.28
2022-07-25T18:32:22.954Z,99814.72
2022-07-25T18:34:50.834Z,99810.16
2022-07-25T18:37:19.328Z,99831.78
2022-07-25T18:40:07.159Z,99814.75
2022-07-25T18:42:35.119Z,99842.00
2022-07-25T18:45:03.340Z,99814.38
2022-07-25T18:47:32.457Z,99855.53
2022-07-25T18:50:00.503Z,99863.00
2022-07-25T18:52:29.955Z,99861.06
2022-07-25T18:54:59.499Z,99859.13
2022-07-25T18:57:27.388Z,99863.59
2022-07-25T18:59:59.441Z,99875.19
2022-07-25T19:02:30.286Z,99862.28
2022-07-25T19:04:58.191Z,99883.41
2022-07-25T19:07:26.897Z,99885.75
2022-07-25T19:09:54.791Z,99891.88
2022-07-25T19:12:26.458Z,99898.09
2022-07-25T19:14:54.974Z,99906.34
2022-07-25T19:17:23.830Z,99913.94
2022-07-25T19:19:52.651Z,99912.31
2022-07-25T19:22:20.869Z,99916.88
2022-07-25T19:24:48.754Z,99933.41
2022-07-25T19:27:16.605Z,99927.06
2022-07-25T19:29:45.933Z,99945.69
2022-07-25T19:32:13.780Z,99960.41
2022-07-25T19:34:46.334Z,99961.03
2022-07-25T19:37:14.174Z,99951.75
2022-07-25T19:39:42.090Z,99957.78
2022-07-25T19:42:10.802Z,99954.28
2022-07-25T19:44:39.167Z,99941.00
2022-07-25T19:47:11.623Z,99957.19
2022-07-25T19:49:40.651Z,99970.13
2022-07-25T19:52:09.336Z,99993.00
2022-07-25T19:54:37.260Z,99987.41
2022-07-25T19:57:05.908Z,99987.88
2022-07-25T19:59:33.902Z,99998.69
2022-07-25T20:02:02.013Z,100001.63
2022-07-25T20:04:31.403Z,100008.63
2022-07-25T20:07:02.167Z,99999.41
2022-07-25T20:09:30.327Z,99996.69
2022-07-25T20:11:58.744Z,99998.78
2022-07-25T20:14:26.583Z,100005.47
2022-07-25T20:16:54.526Z,100001.38
2022-07-25T20:19:22.555Z,100008.78
2022-07-25T20:21:52.293Z,100000.69
2022-07-25T20:24:21.693Z,100004.09
2022-07-25T20:26:50.039Z,100003.63
2022-07-25T20:29:18.459Z,100007.94
2022-07-25T20:31:46.624Z,100022.28
2022-07-25T20:34:15.159Z,100028.91
2022-07-25T20:36:43.052Z,100033.78
2022-07-25T20:39:13.245Z,100033.63
2022-07-25T20:41:41.341Z,100034.94
2022-07-25T20:44:12.918Z,100042.13
2022-07-25T20:46:40.831Z,100055.69
2022-07-25T20:49:11.042Z,100064.75
2022-07-25T20:51:41.656Z,100063.94
2022-07-25T20:54:10.235Z,100067.91
2022-07-25T20:56:39.881Z,100073.78
2022-07-25T20:59:08.422Z,100058.53
2022-07-25T21:01:38.300Z,100076.84
2022-07-25T21:04:07.760Z,100085.81
